sensor_id;sensor_type;location;lat;lon;timestamp;pressure;altitude;pressure_sealevel;temperature;humidity
80585;BME280;70137;56.482;9.154;2023-07-24T00:00:13;99705.63;;;15.37;90.86
80585;BME280;70137;56.482;9.154;2023-07-24T00:02:38;99709.84;;;15.38;90.80
80585;BME280;70137;56.482;9.154;2023-07-24T00:05:04;99699.41;;;15.38;90.85
80585;BME280;70137;56.482;9.154;2023-07-24T00:07:29;99702.81;;;15.38;91.18
80585;BME280;70137;56.482;9.154;2023-07-24T00:09:56;99689.41;;;15.35;90.84
80585;BME280;70137;56.482;9.154;2023-07-24T00:12:22;99695.84;;;15.32;90.64
80585;BME280;70137;56.482;9.154;2023-07-24T00:14:47;99695.84;;;15.32;90.72
80585;BME280;70137;56.482;9.154;2023-07-24T00:17:13;99694.03;;;15.33;90.80
80585;BME280;70137;56.482;9.154;2023-07-24T00:19:38;99687.78;;;15.34;90.78
80585;BME280;70137;56.482;9.154;2023-07-24T00:22:04;99681.56;;;15.35;90.41
80585;BME280;70137;56.482;9.154;2023-07-24T00:24:30;99691.19;;;15.34;90.51
80585;BME280;70137;56.482;9.154;2023-07-24T00:26:56;99680.97;;;15.33;90.73
80585;BME280;70137;56.482;9.154;2023-07-24T00:29:21;99682.56;;;15.34;90.62
80585;BME280;70137;56.482;9.154;2023-07-24T00:31:47;99684.97;;;15.35;90.92
80585;BME280;70137;56.482;9.154;2023-07-24T00:34:12;99679.31;;;15.38;91.05
80585;BME280;70137;56.482;9.154;2023-07-24T00:36:37;99677.03;;;15.42;91.69
80585;BME280;70137;56.482;9.154;2023-07-24T00:39:03;99679.22;;;15.45;91.49
80585;BME280;70137;56.482;9.154;2023-07-24T00:41:28;99676.38;;;15.46;91.63
80585;BME280;70137;56.482;9.154;2023-07-24T00:43:54;99675.38;;;15.48;92.15
80585;BME280;70137;56.482;9.154;2023-07-24T00:46:19;99671.16;;;15.46;91.60
80585;BME280;70137;56.482;9.154;2023-07-24T00:48:45;99666.75;;;15.47;91.82
80585;BME280;70137;56.482;9.154;2023-07-24T00:51:10;99667.75;;;15.46;92.10
80585;BME280;70137;56.482;9.154;2023-07-24T00:53:35;99660.94;;;15.45;91.92
80585;BME280;70137;56.482;9.154;2023-07-24T00:56:01;99653.13;;;15.45;91.93
80585;BME280;70137;56.482;9.154;2023-07-24T00:58:27;99647.88;;;15.45;91.78
80585;BME280;70137;56.482;9.154;2023-07-24T01:00:53;99651.50;;;15.44;92.08
80585;BME280;70137;56.482;9.154;2023-07-24T01:03:18;99645.47;;;15.43;92.57
80585;BME280;70137;56.482;9.154;2023-07-24T01:05:44;99643.88;;;15.42;92.25
80585;BME280;70137;56.482;9.154;2023-07-24T01:08:09;99633.66;;;15.41;92.09
80585;BME280;70137;56.482;9.154;2023-07-24T01:10:34;99631.84;;;15.41;92.18
80585;BME280;70137;56.482;9.154;2023-07-24T01:13:12;99623.44;;;15.39;92.20
80585;BME280;70137;56.482;9.154;2023-07-24T01:16:18;99615.84;;;15.38;92.11
80585;BME280;70137;56.482;9.154;2023-07-24T01:18:36;99612.66;;;15.36;92.10
80585;BME280;70137;56.482;9.154;2023-07-24T01:21:04;99611.25;;;15.33;91.82
80585;BME280;70137;56.482;9.154;2023-07-24T01:24:12;99616.72;;;15.32;92.26
80585;BME280;70137;56.482;9.154;2023-07-24T01:26:40;99616.59;;;15.27;92.40
80585;BME280;70137;56.482;9.154;2023-07-24T01:29:05;99608.38;;;15.23;91.85
80585;BME280;70137;56.482;9.154;2023-07-24T01:31:30;99612.47;;;15.19;91.51
80585;BME280;70137;56.482;9.154;2023-07-24T01:33:56;99604.47;;;15.14;91.78
80585;BME280;70137;56.482;9.154;2023-07-24T01:36:21;99612.75;;;15.11;91.48
80585;BME280;70137;56.482;9.154;2023-07-24T01:38:47;99602.78;;;15.08;91.71
80585;BME280;70137;56.482;9.154;2023-07-24T01:41:13;99596.16;;;15.05;91.92
80585;BME280;70137;56.482;9.154;2023-07-24T01:43:39;99593.41;;;15.00;92.04
80585;BME280;70137;56.482;9.154;2023-07-24T01:46:04;99590.25;;;14.98;91.29
80585;BME280;70137;56.482;9.154;2023-07-24T01:48:29;99589.88;;;14.95;91.33
80585;BME280;70137;56.482;9.154;2023-07-24T01:50:54;99585.09;;;14.92;91.56
80585;BME280;70137;56.482;9.154;2023-07-24T01:53:20;99584.53;;;14.89;91.34
80585;BME280;70137;56.482;9.154;2023-07-24T01:55:45;99586.34;;;14.89;91.35
80585;BME280;70137;56.482;9.154;2023-07-24T01:58:10;99589.16;;;14.87;91.09
80585;BME280;70137;56.482;9.154;2023-07-24T02:00:36;99580.53;;;14.87;91.39
80585;BME280;70137;56.482;9.154;2023-07-24T02:03:01;99575.53;;;14.85;91.52
80585;BME280;70137;56.482;9.154;2023-07-24T02:05:26;99575.97;;;14.82;91.14
80585;BME280;70137;56.482;9.154;2023-07-24T02:07:52;99572.78;;;14.80;90.84
80585;BME280;70137;56.482;9.154;2023-07-24T02:10:17;99568.81;;;14.78;90.90
80585;BME280;70137;56.482;9.154;2023-07-24T02:12:42;99566.84;;;14.73;91.10
80585;BME280;70137;56.482;9.154;2023-07-24T02:15:08;99568.09;;;14.71;91.01
80585;BME280;70137;56.482;9.154;2023-07-24T02:17:33;99561.50;;;14.68;90.28
80585;BME280;70137;56.482;9.154;2023-07-24T02:19:59;99561.69;;;14.67;90.57
80585;BME280;70137;56.482;9.154;2023-07-24T02:22:24;99550.13;;;14.63;90.91
80585;BME280;70137;56.482;9.154;2023-07-24T02:24:49;99559.41;;;14.58;90.46
80585;BME280;70137;56.482;9.154;2023-07-24T02:27:26;99554.59;;;14.55;90.44
80585;BME280;70137;56.482;9.154;2023-07-24T02:29:51;99543.03;;;14.51;90.20
80585;BME280;70137;56.482;9.154;2023-07-24T02:32:16;99543.47;;;14.48;90.42
80585;BME280;70137;56.482;9.154;2023-07-24T02:34:42;99542.84;;;14.46;89.94
80585;BME280;70137;56.482;9.154;2023-07-24T02:37:07;99542.25;;;14.44;89.80
80585;BME280;70137;56.482;9.154;2023-07-24T02:39:32;99542.47;;;14.43;90.57
80585;BME280;70137;56.482;9.154;2023-07-24T02:41:58;99541.91;;;14.41;90.15
80585;BME280;70137;56.482;9.154;2023-07-24T02:44:23;99542.69;;;14.41;89.96
80585;BME280;70137;56.482;9.154;2023-07-24T02:46:48;99541.09;;;14.40;89.93
80585;BME280;70137;56.482;9.154;2023-07-24T02:49:13;99535.09;;;14.40;90.18
80585;BME280;70137;56.482;9.154;2023-07-24T02:51:39;99539.06;;;14.42;89.94
80585;BME280;70137;56.482;9.154;2023-07-24T02:54:04;99544.28;;;14.42;90.49
80585;BME280;70137;56.482;9.154;2023-07-24T02:56:31;99537.03;;;14.44;90.01
80585;BME280;70137;56.482;9.154;2023-07-24T02:58:56;99536.25;;;14.44;89.93
80585;BME280;70137;56.482;9.154;2023-07-24T03:01:21;99542.84;;;14.46;89.96
80585;BME280;70137;56.482;9.154;2023-07-24T03:07:09;99540.63;;;14.50;90.13
80585;BME280;70137;56.482;9.154;2023-07-24T03:09:34;99539.41;;;14.52;90.09
80585;BME280;70137;56.482;9.154;2023-07-24T03:11:59;99541.78;;;14.54;90.30
80585;BME280;70137;56.482;9.154;2023-07-24T03:14:24;99541.56;;;14.55;90.55
80585;BME280;70137;56.482;9.154;2023-07-24T03:16:51;99540.53;;;14.56;90.44
80585;BME280;70137;56.482;9.154;2023-07-24T03:19:16;99538.53;;;14.58;90.63
80585;BME280;70137;56.482;9.154;2023-07-24T03:21:43;99530.50;;;14.60;90.42
80585;BME280;70137;56.482;9.154;2023-07-24T03:24:08;99532.31;;;14.59;90.80
80585;BME280;70137;56.482;9.154;2023-07-24T03:26:33;99518.47;;;14.59;90.84
80585;BME280;70137;56.482;9.154;2023-07-24T03:29:00;99528.91;;;14.59;90.87
80585;BME280;70137;56.482;9.154;2023-07-24T03:31:25;99529.91;;;14.58;90.75
80585;BME280;70137;56.482;9.154;2023-07-24T03:33:50;99530.91;;;14.57;90.94
80585;BME280;70137;56.482;9.154;2023-07-24T03:36:16;99528.53;;;14.55;90.52
80585;BME280;70137;56.482;9.154;2023-07-24T03:38:41;99528.16;;;14.52;90.59
80585;BME280;70137;56.482;9.154;2023-07-24T03:41:06;99531.00;;;14.50;91.00
80585;BME280;70137;56.482;9.154;2023-07-24T03:43:31;99538.25;;;14.48;90.96
80585;BME280;70137;56.482;9.154;2023-07-24T03:45:57;99536.63;;;14.47;90.79
80585;BME280;70137;56.482;9.154;2023-07-24T03:48:22;99529.81;;;14.46;90.81
80585;BME280;70137;56.482;9.154;2023-07-24T03:50:49;99529.81;;;14.46;90.92
80585;BME280;70137;56.482;9.154;2023-07-24T03:53:15;99526.19;;;14.47;90.77
80585;BME280;70137;56.482;9.154;2023-07-24T03:55:40;99522.94;;;14.52;90.90
80585;BME280;70137;56.482;9.154;2023-07-24T03:58:06;99526.94;;;14.54;90.61
80585;BME280;70137;56.482;9.154;2023-07-24T04:00:31;99526.50;;;14.57;90.96
80585;BME280;70137;56.482;9.154;2023-07-24T04:02:56;99519.25;;;14.59;91.33
80585;BME280;70137;56.482;9.154;2023-07-24T04:05:22;99517.00;;;14.63;91.43
80585;BME280;70137;56.482;9.154;2023-07-24T04:07:47;99512.56;;;14.64;91.20
80585;BME280;70137;56.482;9.154;2023-07-24T04:10:12;99509.53;;;14.67;91.27
80585;BME280;70137;56.482;9.154;2023-07-24T04:12:38;99516.94;;;14.70;91.29
80585;BME280;70137;56.482;9.154;2023-07-24T04:15:03;99518.53;;;14.71;90.99
80585;BME280;70137;56.482;9.154;2023-07-24T04:17:29;99523.28;;;14.74;91.20
80585;BME280;70137;56.482;9.154;2023-07-24T04:19:54;99532.72;;;14.75;91.08
80585;BME280;70137;56.482;9.154;2023-07-24T04:22:20;99553.56;;;14.75;91.87
80585;BME280;70137;56.482;9.154;2023-07-24T04:24:45;99551.75;;;14.75;91.77
80585;BME280;70137;56.482;9.154;2023-07-24T04:27:10;99555.16;;;14.76;91.41
80585;BME280;70137;56.482;9.154;2023-07-24T04:29:36;99541.94;;;14.77;92.29
80585;BME280;70137;56.482;9.154;2023-07-24T04:32:01;99557.59;;;14.77;92.31
80585;BME280;70137;56.482;9.154;2023-07-24T04:34:26;99546.34;;;14.77;92.38
80585;BME280;70137;56.482;9.154;2023-07-24T04:36:57;99542.91;;;14.76;92.17
80585;BME280;70137;56.482;9.154;2023-07-24T04:39:23;99539.50;;;14.76;92.09
80585;BME280;70137;56.482;9.154;2023-07-24T04:41:48;99537.50;;;14.78;92.17
80585;BME280;70137;56.482;9.154;2023-07-24T04:44:13;99535.47;;;14.80;92.35
80585;BME280;70137;56.482;9.154;2023-07-24T04:46:38;99526.75;;;14.86;92.09
80585;BME280;70137;56.482;9.154;2023-07-24T04:49:04;99515.31;;;14.87;91.80
80585;BME280;70137;56.482;9.154;2023-07-24T04:51:29;99514.28;;;14.88;92.10
80585;BME280;70137;56.482;9.154;2023-07-24T04:53:54;99519.53;;;14.88;92.23
80585;BME280;70137;56.482;9.154;2023-07-24T04:56:20;99503.88;;;14.88;91.98
80585;BME280;70137;56.482;9.154;2023-07-24T04:58:45;99513.69;;;14.86;92.12
80585;BME280;70137;56.482;9.154;2023-07-24T05:01:16;99514.38;;;14.81;92.48
80585;BME280;70137;56.482;9.154;2023-07-24T05:03:41;99527.63;;;14.80;91.61
80585;BME280;70137;56.482;9.154;2023-07-24T05:12:50;99526.69;;;14.74;91.57
80585;BME280;70137;56.482;9.154;2023-07-24T05:15:15;99523.84;;;14.76;91.42
80585;BME280;70137;56.482;9.154;2023-07-24T05:17:45;99517.66;;;14.77;91.48
80585;BME280;70137;56.482;9.154;2023-07-24T05:20:10;99518.22;;;14.79;91.10
80585;BME280;70137;56.482;9.154;2023-07-24T05:22:36;99518.00;;;14.80;91.01
80585;BME280;70137;56.482;9.154;2023-07-24T05:25:01;99519.38;;;14.83;91.05
80585;BME280;70137;56.482;9.154;2023-07-24T05:27:26;99521.53;;;14.86;91.38
80585;BME280;70137;56.482;9.154;2023-07-24T05:29:52;99522.13;;;14.88;90.95
80585;BME280;70137;56.482;9.154;2023-07-24T05:32:17;99523.72;;;14.89;90.87
80585;BME280;70137;56.482;9.154;2023-07-24T05:34:42;99526.31;;;14.89;91.27
80585;BME280;70137;56.482;9.154;2023-07-24T05:37:08;99521.69;;;14.91;91.66
80585;BME280;70137;56.482;9.154;2023-07-24T05:39:33;99525.66;;;14.94;91.10
80585;BME280;70137;56.482;9.154;2023-07-24T05:41:58;99534.88;;;14.96;91.13
80585;BME280;70137;56.482;9.154;2023-07-24T05:44:24;99530.00;;;15.00;90.82
80585;BME280;70137;56.482;9.154;2023-07-24T05:46:49;99536.56;;;15.02;91.36
80585;BME280;70137;56.482;9.154;2023-07-24T05:49:14;99544.41;;;15.02;90.48
80585;BME280;70137;56.482;9.154;2023-07-24T05:51:39;99544.41;;;15.02;90.75
80585;BME280;70137;56.482;9.154;2023-07-24T05:54:05;99551.59;;;15.07;90.80
80585;BME280;70137;56.482;9.154;2023-07-24T05:56:30;99549.91;;;15.12;91.25
80585;BME280;70137;56.482;9.154;2023-07-24T05:58:55;99552.66;;;15.17;90.61
80585;BME280;70137;56.482;9.154;2023-07-24T06:01:21;99555.25;;;15.17;91.22
80585;BME280;70137;56.482;9.154;2023-07-24T06:03:46;99548.78;;;15.20;90.81
80585;BME280;70137;56.482;9.154;2023-07-24T06:06:11;99555.16;;;15.24;91.06
80585;BME280;70137;56.482;9.154;2023-07-24T06:08:36;99548.13;;;15.25;90.68
80585;BME280;70137;56.482;9.154;2023-07-24T06:11:02;99544.50;;;15.26;90.92
80585;BME280;70137;56.482;9.154;2023-07-24T06:13:27;99538.50;;;15.25;90.50
80585;BME280;70137;56.482;9.154;2023-07-24T06:15:52;99551.31;;;15.27;90.40
80585;BME280;70137;56.482;9.154;2023-07-24T06:18:18;99544.28;;;15.27;90.86
80585;BME280;70137;56.482;9.154;2023-07-24T06:20:43;99555.28;;;15.29;90.70
80585;BME280;70137;56.482;9.154;2023-07-24T06:23:08;99548.81;;;15.32;90.61
80585;BME280;70137;56.482;9.154;2023-07-24T06:25:34;99557.81;;;15.36;90.89
80585;BME280;70137;56.482;9.154;2023-07-24T06:28:00;99557.22;;;15.34;90.41
80585;BME280;70137;56.482;9.154;2023-07-24T06:30:25;99567.25;;;15.37;90.66
80585;BME280;70137;56.482;9.154;2023-07-24T06:32:50;99563.38;;;15.39;90.57
80585;BME280;70137;56.482;9.154;2023-07-24T06:35:16;99562.69;;;15.44;90.04
80585;BME280;70137;56.482;9.154;2023-07-24T06:37:41;99565.13;;;15.45;90.02
80585;BME280;70137;56.482;9.154;2023-07-24T06:40:07;99558.66;;;15.48;90.58
80585;BME280;70137;56.482;9.154;2023-07-24T06:42:33;99586.50;;;15.54;90.13
80585;BME280;70137;56.482;9.154;2023-07-24T06:44:59;99584.66;;;15.55;89.78
80585;BME280;70137;56.482;9.154;2023-07-24T06:47:24;99580.44;;;15.54;90.19
80585;BME280;70137;56.482;9.154;2023-07-24T06:49:49;99587.06;;;15.56;90.20
80585;BME280;70137;56.482;9.154;2023-07-24T06:52:15;99588.66;;;15.57;89.67
80585;BME280;70137;56.482;9.154;2023-07-24T06:54:40;99596.06;;;15.60;89.41
80585;BME280;70137;56.482;9.154;2023-07-24T06:57:05;99587.56;;;15.65;89.90
80585;BME280;70137;56.482;9.154;2023-07-24T06:59:31;99582.91;;;15.67;89.52
80585;BME280;70137;56.482;9.154;2023-07-24T07:01:56;99591.66;;;15.72;89.40
80585;BME280;70137;56.482;9.154;2023-07-24T07:04:21;99587.59;;;15.77;89.53
80585;BME280;70137;56.482;9.154;2023-07-24T07:06:47;99590.31;;;15.82;89.17
80585;BME280;70137;56.482;9.154;2023-07-24T07:09:12;99589.41;;;15.88;88.99
80585;BME280;70137;56.482;9.154;2023-07-24T07:11:37;99591.00;;;15.89;88.65
80585;BME280;70137;56.482;9.154;2023-07-24T07:14:03;99591.00;;;15.89;88.75
80585;BME280;70137;56.482;9.154;2023-07-24T07:16:29;99593.84;;;15.87;88.04
80585;BME280;70137;56.482;9.154;2023-07-24T07:18:54;99590.22;;;15.88;88.51
80585;BME280;70137;56.482;9.154;2023-07-24T07:21:19;99592.16;;;15.93;88.43
80585;BME280;70137;56.482;9.154;2023-07-24T07:23:45;99595.09;;;15.96;88.59
80585;BME280;70137;56.482;9.154;2023-07-24T07:26:10;99592.72;;;15.95;88.85
80585;BME280;70137;56.482;9.154;2023-07-24T07:28:35;99592.03;;;15.99;88.98
80585;BME280;70137;56.482;9.154;2023-07-24T07:31:01;99591.16;;;16.06;88.25
80585;BME280;70137;56.482;9.154;2023-07-24T07:33:26;99598.28;;;16.10;87.73
80585;BME280;70137;56.482;9.154;2023-07-24T07:35:51;99600.00;;;16.16;87.69
80585;BME280;70137;56.482;9.154;2023-07-24T07:38:16;99596.94;;;16.19;88.04
80585;BME280;70137;56.482;9.154;2023-07-24T07:40:42;99600.13;;;16.21;87.14
80585;BME280;70137;56.482;9.154;2023-07-24T07:43:07;99601.25;;;16.25;87.12
80585;BME280;70137;56.482;9.154;2023-07-24T07:45:32;99601.03;;;16.27;87.00
80585;BME280;70137;56.482;9.154;2023-07-24T07:47:58;99609.34;;;16.24;86.66
80585;BME280;70137;56.482;9.154;2023-07-24T07:50:23;99601.13;;;16.20;86.74
80585;BME280;70137;56.482;9.154;2023-07-24T07:52:50;99615.81;;;16.21;87.05
80585;BME280;70137;56.482;9.154;2023-07-24T07:55:16;99616.81;;;16.20;87.19
80585;BME280;70137;56.482;9.154;2023-07-24T07:57:41;99616.41;;;16.23;87.23
80585;BME280;70137;56.482;9.154;2023-07-24T08:00:07;99617.75;;;16.26;86.88
80585;BME280;70137;56.482;9.154;2023-07-24T08:02:32;99621.50;;;16.30;86.88
80585;BME280;70137;56.482;9.154;2023-07-24T08:04:59;99627.78;;;16.41;86.89
80585;BME280;70137;56.482;9.154;2023-07-24T08:07:24;99631.16;;;16.53;86.34
80585;BME280;70137;56.482;9.154;2023-07-24T08:09:50;99625.13;;;16.64;86.01
80585;BME280;70137;56.482;9.154;2023-07-24T08:12:15;99637.34;;;16.70;86.20
80585;BME280;70137;56.482;9.154;2023-07-24T08:14:40;99640.50;;;16.72;85.91
80585;BME280;70137;56.482;9.154;2023-07-24T08:17:06;99653.13;;;16.75;85.10
80585;BME280;70137;56.482;9.154;2023-07-24T08:19:31;99657.00;;;16.73;85.18
80585;BME280;70137;56.482;9.154;2023-07-24T08:21:56;99666.13;;;16.70;84.62
80585;BME280;70137;56.482;9.154;2023-07-24T08:24:22;99668.50;;;16.72;85.32
80585;BME280;70137;56.482;9.154;2023-07-24T08:26:47;99663.69;;;16.69;84.51
80585;BME280;70137;56.482;9.154;2023-07-24T08:29:12;99660.72;;;16.65;84.40
80585;BME280;70137;56.482;9.154;2023-07-24T08:31:38;99663.28;;;16.72;84.47
80585;BME280;70137;56.482;9.154;2023-07-24T08:34:03;99663.59;;;16.75;84.88
80585;BME280;70137;56.482;9.154;2023-07-24T08:36:28;99665.19;;;16.76;84.35
80585;BME280;70137;56.482;9.154;2023-07-24T08:38:54;99656.44;;;16.82;84.54
80585;BME280;70137;56.482;9.154;2023-07-24T08:41:19;99646.63;;;16.90;84.44
80585;BME280;70137;56.482;9.154;2023-07-24T08:43:45;99660.03;;;16.93;84.27
80585;BME280;70137;56.482;9.154;2023-07-24T08:46:10;99658.97;;;17.06;84.03
80585;BME280;70137;56.482;9.154;2023-07-24T08:48:38;99665.16;;;17.40;83.57
80585;BME280;70137;56.482;9.154;2023-07-24T08:51:05;99666.63;;;17.48;83.41
80585;BME280;70137;56.482;9.154;2023-07-24T08:53:33;99662.00;;;17.55;82.46
80585;BME280;70137;56.482;9.154;2023-07-24T08:56:02;99659.72;;;17.58;82.08
80585;BME280;70137;56.482;9.154;2023-07-24T08:58:27;99658.22;;;17.62;81.95
80585;BME280;70137;56.482;9.154;2023-07-24T09:00:53;99655.84;;;17.61;80.50
80585;BME280;70137;56.482;9.154;2023-07-24T09:03:19;99663.44;;;17.74;80.92
80585;BME280;70137;56.482;9.154;2023-07-24T09:05:44;99668.47;;;17.92;81.40
80585;BME280;70137;56.482;9.154;2023-07-24T09:08:10;99670.88;;;18.11;79.66
80585;BME280;70137;56.482;9.154;2023-07-24T09:10:35;99669.44;;;18.20;79.16
80585;BME280;70137;56.482;9.154;2023-07-24T09:13:00;99676.28;;;18.21;77.77
80585;BME280;70137;56.482;9.154;2023-07-24T09:15:29;99682.94;;;18.45;78.13
80585;BME280;70137;56.482;9.154;2023-07-24T09:17:54;99673.03;;;18.86;77.94
80585;BME280;70137;56.482;9.154;2023-07-24T09:20:20;99681.72;;;18.86;75.75
80585;BME280;70137;56.482;9.154;2023-07-24T09:22:52;99684.69;;;18.73;76.87
80585;BME280;70137;56.482;9.154;2023-07-24T09:25:19;99689.38;;;18.71;76.58
80585;BME280;70137;56.482;9.154;2023-07-24T09:27:54;99692.78;;;18.72;75.70
80585;BME280;70137;56.482;9.154;2023-07-24T09:30:19;99686.75;;;18.71;76.64
80585;BME280;70137;56.482;9.154;2023-07-24T09:32:52;99699.03;;;18.66;75.13
80585;BME280;70137;56.482;9.154;2023-07-24T09:35:19;99700.13;;;18.53;74.58
80585;BME280;70137;56.482;9.154;2023-07-24T09:37:45;99698.16;;;18.43;75.72
80585;BME280;70137;56.482;9.154;2023-07-24T09:40:11;99704.25;;;18.49;75.76
80585;BME280;70137;56.482;9.154;2023-07-24T09:42:38;99710.38;;;18.54;75.21
80585;BME280;70137;56.482;9.154;2023-07-24T09:45:06;99711.41;;;18.53;75.80
80585;BME280;70137;56.482;9.154;2023-07-24T09:47:34;99700.97;;;18.58;75.87
80585;BME280;70137;56.482;9.154;2023-07-24T09:49:59;99709.97;;;18.63;75.37
80585;BME280;70137;56.482;9.154;2023-07-24T09:52:29;99712.81;;;18.61;75.20
80585;BME280;70137;56.482;9.154;2023-07-24T09:57:28;99720.63;;;18.56;74.90
80585;BME280;70137;56.482;9.154;2023-07-24T09:59:56;99715.69;;;18.59;74.88
80585;BME280;70137;56.482;9.154;2023-07-24T10:02:22;99717.16;;;19.06;74.67
80585;BME280;70137;56.482;9.154;2023-07-24T10:04:49;99717.81;;;19.18;73.80
80585;BME280;70137;56.482;9.154;2023-07-24T10:07:14;99720.88;;;19.10;73.74
80585;BME280;70137;56.482;9.154;2023-07-24T10:09:42;99713.84;;;19.15;74.94
80585;BME280;70137;56.482;9.154;2023-07-24T10:12:08;99710.69;;;19.13;74.00
80585;BME280;70137;56.482;9.154;2023-07-24T10:14:34;99707.41;;;19.23;72.98
80585;BME280;70137;56.482;9.154;2023-07-24T10:17:01;99714.09;;;19.36;72.44
80585;BME280;70137;56.482;9.154;2023-07-24T10:19:35;99722.28;;;19.17;72.22
80585;BME280;70137;56.482;9.154;2023-07-24T10:22:02;99729.06;;;19.13;72.78
80585;BME280;70137;56.482;9.154;2023-07-24T10:24:29;99728.72;;;19.70;73.24
80585;BME280;70137;56.482;9.154;2023-07-24T10:26:56;99726.41;;;20.06;71.86
80585;BME280;70137;56.482;9.154;2023-07-24T10:29:24;99725.59;;;20.00;69.11
80585;BME280;70137;56.482;9.154;2023-07-24T10:31:54;99727.34;;;19.90;70.23
80585;BME280;70137;56.482;9.154;2023-07-24T10:34:20;99730.31;;;19.71;70.30
80585;BME280;70137;56.482;9.154;2023-07-24T10:36:46;99733.72;;;19.50;70.04
80585;BME280;70137;56.482;9.154;2023-07-24T10:39:17;99743.75;;;19.53;70.93
80585;BME280;70137;56.482;9.154;2023-07-24T10:41:46;99739.88;;;19.39;71.27
80585;BME280;70137;56.482;9.154;2023-07-24T10:44:12;99752.19;;;19.33;71.46
80585;BME280;70137;56.482;9.154;2023-07-24T10:46:41;99745.59;;;19.31;71.69
80585;BME280;70137;56.482;9.154;2023-07-24T10:49:08;99745.63;;;19.36;71.27
80585;BME280;70137;56.482;9.154;2023-07-24T10:51:33;99748.44;;;19.29;70.46
80585;BME280;70137;56.482;9.154;2023-07-24T10:54:02;99747.59;;;19.24;71.52
80585;BME280;70137;56.482;9.154;2023-07-24T10:56:27;99752.22;;;19.16;72.42
80585;BME280;70137;56.482;9.154;2023-07-24T10:58:52;99754.00;;;19.11;72.48
80585;BME280;70137;56.482;9.154;2023-07-24T11:01:18;99758.16;;;19.29;73.23
80585;BME280;70137;56.482;9.154;2023-07-24T11:03:43;99747.75;;;19.39;73.92
80585;BME280;70137;56.482;9.154;2023-07-24T11:06:17;99756.69;;;19.38;73.75
80585;BME280;70137;56.482;9.154;2023-07-24T11:08:57;99751.38;;;19.33;72.33
80585;BME280;70137;56.482;9.154;2023-07-24T11:11:33;99761.28;;;19.26;72.71
80585;BME280;70137;56.482;9.154;2023-07-24T11:14:00;99764.94;;;19.25;72.49
80585;BME280;70137;56.482;9.154;2023-07-24T11:16:26;99751.72;;;19.20;71.51
80585;BME280;70137;56.482;9.154;2023-07-24T11:18:52;99764.81;;;19.14;72.42
80585;BME280;70137;56.482;9.154;2023-07-24T11:21:18;99763.16;;;19.08;72.41
80585;BME280;70137;56.482;9.154;2023-07-24T11:26:12;99754.59;;;19.18;72.09
80585;BME280;70137;56.482;9.154;2023-07-24T11:28:39;99760.41;;;19.20;71.20
80585;BME280;70137;56.482;9.154;2023-07-24T11:31:05;99762.81;;;19.22;71.63
80585;BME280;70137;56.482;9.154;2023-07-24T11:33:31;99763.97;;;19.31;70.52
80585;BME280;70137;56.482;9.154;2023-07-24T11:35:57;99768.25;;;19.37;71.22
80585;BME280;70137;56.482;9.154;2023-07-24T11:38:22;99768.31;;;19.42;70.63
80585;BME280;70137;56.482;9.154;2023-07-24T11:40:49;99776.88;;;19.32;70.13
80585;BME280;70137;56.482;9.154;2023-07-24T11:43:19;99777.22;;;19.19;70.05
80585;BME280;70137;56.482;9.154;2023-07-24T11:45:46;99775.47;;;19.08;70.27
80585;BME280;70137;56.482;9.154;2023-07-24T11:48:14;99781.16;;;19.00;70.21
80585;BME280;70137;56.482;9.154;2023-07-24T11:50:58;99783.38;;;19.08;69.48
80585;BME280;70137;56.482;9.154;2023-07-24T11:53:30;99781.91;;;19.17;70.37
80585;BME280;70137;56.482;9.154;2023-07-24T11:55:59;99776.66;;;19.56;71.56
80585;BME280;70137;56.482;9.154;2023-07-24T11:58:28;99778.16;;;19.73;71.41
80585;BME280;70137;56.482;9.154;2023-07-24T12:00:54;99781.19;;;19.87;70.51
80585;BME280;70137;56.482;9.154;2023-07-24T12:03:21;99778.38;;;19.94;70.64
80585;BME280;70137;56.482;9.154;2023-07-24T12:05:47;99777.84;;;19.92;68.67
80585;BME280;70137;56.482;9.154;2023-07-24T12:08:12;99777.78;;;19.87;69.48
80585;BME280;70137;56.482;9.154;2023-07-24T12:10:39;99774.16;;;19.93;69.30
80585;BME280;70137;56.482;9.154;2023-07-24T12:13:05;99777.16;;;20.01;70.45
80585;BME280;70137;56.482;9.154;2023-07-24T12:15:30;99778.69;;;20.24;69.63
80585;BME280;70137;56.482;9.154;2023-07-24T12:17:56;99778.69;;;20.51;69.53
80585;BME280;70137;56.482;9.154;2023-07-24T12:20:23;99782.38;;;20.88;68.67
80585;BME280;70137;56.482;9.154;2023-07-24T12:22:48;99788.00;;;21.06;67.16
80585;BME280;70137;56.482;9.154;2023-07-24T12:25:14;99777.94;;;21.46;66.98
80585;BME280;70137;56.482;9.154;2023-07-24T12:27:40;99785.72;;;21.88;65.77
80585;BME280;70137;56.482;9.154;2023-07-24T12:30:07;99782.56;;;21.86;65.42
80585;BME280;70137;56.482;9.154;2023-07-24T12:32:32;99780.94;;;21.69;63.27
80585;BME280;70137;56.482;9.154;2023-07-24T12:34:57;99783.75;;;21.42;64.37
80585;BME280;70137;56.482;9.154;2023-07-24T12:37:23;99789.47;;;21.29;65.34
80585;BME280;70137;56.482;9.154;2023-07-24T12:39:49;99790.91;;;21.52;65.32
80585;BME280;70137;56.482;9.154;2023-07-24T12:42:14;99786.25;;;21.90;66.74
80585;BME280;70137;56.482;9.154;2023-07-24T12:44:41;99789.19;;;21.93;64.48
80585;BME280;70137;56.482;9.154;2023-07-24T12:47:07;99783.88;;;21.83;64.41
80585;BME280;70137;56.482;9.154;2023-07-24T12:49:32;99789.63;;;21.70;64.89
80585;BME280;70137;56.482;9.154;2023-07-24T12:51:58;99789.34;;;21.56;65.41
80585;BME280;70137;56.482;9.154;2023-07-24T12:54:23;99785.53;;;21.32;64.00
80585;BME280;70137;56.482;9.154;2023-07-24T12:56:49;99794.66;;;21.19;64.23
80585;BME280;70137;56.482;9.154;2023-07-24T12:59:15;99788.22;;;20.95;63.91
80585;BME280;70137;56.482;9.154;2023-07-24T13:01:41;99786.47;;;20.73;63.54
80585;BME280;70137;56.482;9.154;2023-07-24T13:04:07;99800.00;;;20.55;65.64
80585;BME280;70137;56.482;9.154;2023-07-24T13:06:32;99801.63;;;20.56;64.40
80585;BME280;70137;56.482;9.154;2023-07-24T13:08:58;99799.94;;;20.45;65.76